Time;durP1;ratioP1;P1;durP2;ratioP2;P2;SDS_P1;SDS_P2;PMS_P1;PMS_P2;Temp;Humidity;BMP_temperature;BMP_pressure;BME280_temperature;BME280_humidity;BME280_pressure;Samples;Min_cycle;Max_cycle;Signal;HPM_P1;HPM_P2
2022/11/19 00:00:41;;;;;;;134.03;23.83;;;;;;;;;;4991377;28;20372;-51
2022/11/19 00:03:07;;;;;;;77.20;14.53;;;;;;;;;;4990284;28;20204;-52
2022/11/19 00:05:43;;;;;;;138.93;24.40;;;;;;;;;;4988152;28;20237;-52
2022/11/19 00:08:09;;;;;;;118.70;20.90;;;;;;;;;;4993974;28;20221;-51
2022/11/19 00:10:39;;;;;;;309.17;53.77;;;;;;;;;;4996481;28;20218;-52
2022/11/19 00:13:06;;;;;;;152.97;27.33;;;;;;;;;;4989962;28;21027;-52
2022/11/19 00:15:33;;;;;;;354.40;64.67;;;;;;;;;;4991704;28;20239;-52
2022/11/19 00:17:59;;;;;;;150.80;26.40;;;;;;;;;;4999804;28;20231;-52
2022/11/19 00:20:25;;;;;;;336.43;58.87;;;;;;;;;;4996851;28;20321;-51
2022/11/19 00:22:52;;;;;;;282.63;48.43;;;;;;;;;;4996287;28;20209;-51
2022/11/19 00:25:18;;;;;;;323.43;58.17;;;;;;;;;;4997722;28;20290;-52
2022/11/19 00:27:44;;;;;;;124.50;22.60;;;;;;;;;;5011001;28;20264;-51
2022/11/19 00:30:10;;;;;;;168.87;30.70;;;;;;;;;;4993203;28;20257;-51
2022/11/19 00:32:36;;;;;;;419.73;73.53;;;;;;;;;;4988919;28;20217;-51
2022/11/19 00:35:03;;;;;;;187.50;32.37;;;;;;;;;;4984544;28;20691;-51
2022/11/19 00:37:29;;;;;;;371.53;63.00;;;;;;;;;;4992657;28;20271;-51
2022/11/19 00:39:55;;;;;;;169.27;29.33;;;;;;;;;;4990037;28;20327;-50
2022/11/19 00:42:21;;;;;;;133.37;24.03;;;;;;;;;;4991698;28;20223;-51
2022/11/19 00:44:47;;;;;;;170.30;30.43;;;;;;;;;;4992986;28;20696;-51
2022/11/19 00:47:13;;;;;;;365.43;62.20;;;;;;;;;;4996592;28;20346;-51
2022/11/19 00:49:39;;;;;;;379.17;61.27;;;;;;;;;;4999063;28;20214;-51
2022/11/19 00:52:05;;;;;;;235.37;42.77;;;;;;;;;;4989717;28;20227;-51
2022/11/19 00:54:31;;;;;;;413.20;70.83;;;;;;;;;;4988818;28;20247;-51
2022/11/19 00:56:57;;;;;;;160.67;29.07;;;;;;;;;;4988031;28;20189;-50
2022/11/19 00:59:23;;;;;;;240.90;41.47;;;;;;;;;;4984402;28;20251;-52
2022/11/19 01:01:49;;;;;;;194.87;33.50;;;;;;;;;;4987483;28;20468;-52
2022/11/19 01:04:15;;;;;;;101.40;18.67;;;;;;;;;;4995571;28;20209;-51
2022/11/19 01:06:41;;;;;;;314.50;52.07;;;;;;;;;;5000377;28;20692;-52
2022/11/19 01:09:07;;;;;;;282.17;47.37;;;;;;;;;;4994706;28;20627;-51
2022/11/19 01:11:34;;;;;;;362.27;62.30;;;;;;;;;;4993332;28;20697;-51
2022/11/19 01:14:00;;;;;;;202.53;34.47;;;;;;;;;;4994205;28;20224;-51
2022/11/19 01:16:31;;;;;;;370.20;61.33;;;;;;;;;;4999109;28;20618;-51
2022/11/19 01:18:57;;;;;;;303.43;50.97;;;;;;;;;;4994530;28;20267;-51
2022/11/19 01:21:24;;;;;;;408.80;66.50;;;;;;;;;;4997641;28;20545;-52
2022/11/19 01:23:50;;;;;;;143.07;25.17;;;;;;;;;;4989612;28;20326;-52
2022/11/19 01:26:17;;;;;;;358.47;59.60;;;;;;;;;;4986220;28;20221;-52
2022/11/19 01:28:44;;;;;;;348.20;61.57;;;;;;;;;;4992834;28;20224;-52
2022/11/19 01:31:11;;;;;;;253.00;42.33;;;;;;;;;;4989234;28;20216;-50
2022/11/19 01:33:37;;;;;;;316.20;52.60;;;;;;;;;;4987337;28;20316;-52
2022/11/19 01:36:05;;;;;;;217.30;38.23;;;;;;;;;;4990815;28;20463;-52
2022/11/19 01:38:31;;;;;;;117.30;21.30;;;;;;;;;;4990307;28;20222;-51
2022/11/19 01:40:57;;;;;;;101.43;17.87;;;;;;;;;;4990477;28;20232;-52
2022/11/19 01:43:43;;;;;;;257.80;41.83;;;;;;;;;;4991902;28;20220;-51
2022/11/19 01:46:10;;;;;;;231.40;38.57;;;;;;;;;;5008098;28;20220;-51
2022/11/19 01:48:38;;;;;;;250.00;43.83;;;;;;;;;;4980112;28;20239;-52
2022/11/19 01:51:08;;;;;;;251.27;42.83;;;;;;;;;;4970930;28;20564;-52
2022/11/19 01:53:34;;;;;;;213.13;35.27;;;;;;;;;;4990952;28;20412;-52
2022/11/19 01:56:05;;;;;;;267.30;44.80;;;;;;;;;;4989281;28;20213;-52
2022/11/19 01:58:33;;;;;;;306.43;52.17;;;;;;;;;;4985341;28;20221;-51
2022/11/19 02:00:59;;;;;;;128.00;22.23;;;;;;;;;;4992153;28;20343;-51
2022/11/19 02:03:27;;;;;;;385.13;63.17;;;;;;;;;;4992964;28;20721;-51
2022/11/19 02:05:53;;;;;;;256.57;42.47;;;;;;;;;;4997376;28;20224;-52
2022/11/19 02:08:34;;;;;;;354.23;56.63;;;;;;;;;;4992691;28;20221;-50
2022/11/19 02:11:17;;;;;;;222.30;36.37;;;;;;;;;;4988735;28;20228;-51
2022/11/19 02:13:47;;;;;;;188.43;30.97;;;;;;;;;;4995967;28;20235;-52
2022/11/19 02:16:16;;;;;;;160.37;27.43;;;;;;;;;;4990401;28;20217;-50
2022/11/19 02:18:51;;;;;;;106.10;18.17;;;;;;;;;;4987984;28;20224;-51
2022/11/19 02:21:17;;;;;;;335.90;58.70;;;;;;;;;;4993839;28;20196;-52
2022/11/19 02:23:55;;;;;;;330.27;57.17;;;;;;;;;;4991753;28;20223;-51
2022/11/19 02:26:33;;;;;;;239.40;40.33;;;;;;;;;;4995549;28;20755;-50
2022/11/19 02:29:19;;;;;;;262.50;42.83;;;;;;;;;;4993219;28;20580;-52
2022/11/19 02:31:56;;;;;;;289.93;47.53;;;;;;;;;;4989553;28;20295;-52
2022/11/19 02:34:27;;;;;;;218.17;34.70;;;;;;;;;;4992991;28;20216;-52
2022/11/19 02:36:53;;;;;;;205.27;32.97;;;;;;;;;;4995602;28;20216;-50
2022/11/19 02:39:21;;;;;;;165.13;27.30;;;;;;;;;;4989222;28;20649;-52
2022/11/19 02:41:51;;;;;;;186.10;31.07;;;;;;;;;;4987383;28;21781;-52
2022/11/19 02:47:05;;;;;;;270.57;45.13;;;;;;;;;;4987384;28;20284;-50
2022/11/19 02:49:31;;;;;;;234.53;37.57;;;;;;;;;;4984709;28;20221;-51
2022/11/19 02:51:59;;;;;;;234.77;38.00;;;;;;;;;;4990366;28;20287;-51
2022/11/19 02:54:26;;;;;;;241.90;39.10;;;;;;;;;;4990901;28;20181;-50
2022/11/19 02:56:53;;;;;;;130.60;22.47;;;;;;;;;;4992837;28;20271;-50
2022/11/19 03:05:05;;;;;;;173.00;27.20;;;;;;;;;;4996834;28;20223;-52
2022/11/19 03:07:31;;;;;;;257.33;42.27;;;;;;;;;;4993239;28;20327;-50
2022/11/19 03:10:00;;;;;;;240.47;38.07;;;;;;;;;;4993666;28;20232;-51
2022/11/19 03:12:35;;;;;;;235.53;37.77;;;;;;;;;;4997591;28;20212;-52
2022/11/19 03:18:00;;;;;;;280.03;43.80;;;;;;;;;;4990058;28;20252;-52
2022/11/19 03:20:28;;;;;;;247.77;39.53;;;;;;;;;;4975995;28;20216;-51
2022/11/19 03:23:08;;;;;;;395.03;62.97;;;;;;;;;;4993541;28;20337;-50
2022/11/19 03:25:44;;;;;;;114.23;19.37;;;;;;;;;;4986656;28;20898;-51
2022/11/19 03:28:12;;;;;;;248.47;38.90;;;;;;;;;;4990333;28;20257;-50
2022/11/19 03:30:39;;;;;;;233.33;36.53;;;;;;;;;;4994575;28;20283;-51
2022/11/19 03:33:08;;;;;;;242.53;38.97;;;;;;;;;;4991141;28;20326;-52
2022/11/19 03:35:45;;;;;;;169.70;25.87;;;;;;;;;;4995668;28;20445;-51
2022/11/19 03:38:13;;;;;;;349.23;55.30;;;;;;;;;;4987933;28;20220;-51
2022/11/19 03:40:41;;;;;;;260.93;39.53;;;;;;;;;;4991903;28;21415;-51
2022/11/19 03:43:09;;;;;;;408.93;63.20;;;;;;;;;;4988470;28;20231;-51
2022/11/19 03:45:40;;;;;;;292.27;44.33;;;;;;;;;;4992643;28;20572;-52
2022/11/19 03:48:06;;;;;;;150.37;24.43;;;;;;;;;;4994558;28;20272;-50
2022/11/19 03:50:47;;;;;;;214.03;34.40;;;;;;;;;;4992829;28;20223;-51
2022/11/19 03:53:13;;;;;;;218.90;33.70;;;;;;;;;;4986901;28;20462;-51
2022/11/19 03:55:43;;;;;;;383.77;61.23;;;;;;;;;;4990571;28;20704;-51
2022/11/19 03:58:10;;;;;;;232.53;36.43;;;;;;;;;;4988413;28;20283;-51
2022/11/19 04:00:36;;;;;;;408.80;64.60;;;;;;;;;;4989212;28;20474;-50
2022/11/19 04:03:02;;;;;;;118.43;19.33;;;;;;;;;;4990259;28;20793;-50
2022/11/19 04:05:28;;;;;;;280.27;44.07;;;;;;;;;;4998180;28;20227;-50
2022/11/19 04:07:54;;;;;;;285.07;44.77;;;;;;;;;;4987310;28;20303;-51
2022/11/19 04:10:20;;;;;;;240.93;36.63;;;;;;;;;;4989656;28;20778;-51
2022/11/19 04:12:45;;;;;;;183.83;27.70;;;;;;;;;;4992097;28;20736;-52
2022/11/19 04:15:12;;;;;;;172.37;28.23;;;;;;;;;;4997433;28;20561;-52
2022/11/19 04:17:38;;;;;;;354.27;59.17;;;;;;;;;;4987967;28;20312;-50
2022/11/19 04:20:05;;;;;;;96.47;16.00;;;;;;;;;;4999092;28;20781;-51
2022/11/19 04:22:31;;;;;;;353.03;57.97;;;;;;;;;;4978172;28;20327;-52
2022/11/19 04:24:57;;;;;;;386.73;61.53;;;;;;;;;;4986811;28;20296;-51
2022/11/19 04:27:23;;;;;;;214.73;32.67;;;;;;;;;;4998246;28;20602;-51
2022/11/19 04:29:49;;;;;;;168.03;26.57;;;;;;;;;;4986534;28;20219;-52
2022/11/19 04:32:15;;;;;;;217.57;34.07;;;;;;;;;;4982782;28;20228;-51
2022/11/19 04:34:41;;;;;;;412.17;61.97;;;;;;;;;;4988360;28;20336;-52
2022/11/19 04:37:07;;;;;;;180.57;28.40;;;;;;;;;;4992581;28;20229;-52
2022/11/19 04:39:33;;;;;;;346.43;52.50;;;;;;;;;;4989622;28;20267;-51
2022/11/19 04:41:59;;;;;;;154.10;24.33;;;;;;;;;;4992123;28;20457;-52
2022/11/19 04:44:25;;;;;;;110.93;18.07;;;;;;;;;;4988861;28;20232;-52
2022/11/19 04:46:50;;;;;;;133.87;21.40;;;;;;;;;;4985090;28;20212;-51
2022/11/19 04:49:16;;;;;;;288.70;44.00;;;;;;;;;;4982519;28;20255;-51
2022/11/19 04:51:42;;;;;;;434.37;66.77;;;;;;;;;;4976911;28;21277;-51
2022/11/19 04:54:08;;;;;;;247.40;37.10;;;;;;;;;;4988335;28;20228;-51
2022/11/19 04:56:35;;;;;;;344.53;58.23;;;;;;;;;;4958776;28;21328;-52
2022/11/19 04:59:01;;;;;;;164.47;25.70;;;;;;;;;;4986812;28;20213;-52
2022/11/19 05:01:27;;;;;;;350.00;55.90;;;;;;;;;;4978494;28;20228;-52
2022/11/19 05:03:53;;;;;;;319.97;49.03;;;;;;;;;;4985469;28;20205;-51
2022/11/19 05:06:19;;;;;;;293.37;46.43;;;;;;;;;;4980612;28;21149;-51
2022/11/19 05:08:45;;;;;;;288.23;44.17;;;;;;;;;;4971524;28;20209;-51
2022/11/19 05:11:11;;;;;;;329.57;50.67;;;;;;;;;;4988880;28;20213;-51
2022/11/19 05:13:37;;;;;;;338.70;51.27;;;;;;;;;;4995403;28;20228;-52
2022/11/19 05:16:03;;;;;;;265.20;42.20;;;;;;;;;;4988526;28;20224;-51
2022/11/19 05:18:29;;;;;;;399.37;60.10;;;;;;;;;;4984075;28;20327;-52
2022/11/19 05:20:55;;;;;;;382.67;59.63;;;;;;;;;;4978366;28;20205;-52
2022/11/19 05:23:21;;;;;;;317.70;52.33;;;;;;;;;;4953923;28;20294;-50
2022/11/19 05:25:47;;;;;;;317.77;53.70;;;;;;;;;;4975276;28;20228;-50
2022/11/19 05:28:13;;;;;;;162.40;26.40;;;;;;;;;;4990190;28;20259;-52
2022/11/19 05:30:39;;;;;;;392.57;63.53;;;;;;;;;;4988099;28;20735;-51
2022/11/19 05:33:05;;;;;;;300.50;46.47;;;;;;;;;;4981976;28;20676;-50
2022/11/19 05:35:31;;;;;;;437.17;69.30;;;;;;;;;;4985223;28;20592;-52
2022/11/19 05:37:57;;;;;;;252.20;42.33;;;;;;;;;;4982920;28;20217;-51
2022/11/19 05:40:23;;;;;;;145.73;25.67;;;;;;;;;;4986728;28;21332;-51
2022/11/19 05:42:49;;;;;;;146.33;24.93;;;;;;;;;;4983658;28;20221;-52
2022/11/19 05:45:15;;;;;;;305.97;51.23;;;;;;;;;;4983045;28;20181;-51
2022/11/19 05:47:41;;;;;;;298.60;52.77;;;;;;;;;;4996688;28;20756;-51
2022/11/19 05:50:07;;;;;;;419.27;79.83;;;;;;;;;;4976246;28;20299;-51
2022/11/19 05:52:33;;;;;;;395.90;74.97;;;;;;;;;;4982078;28;20236;-51
2022/11/19 05:54:59;;;;;;;291.77;55.20;;;;;;;;;;4986931;28;20214;-52
2022/11/19 05:57:25;;;;;;;316.27;60.60;;;;;;;;;;4979249;28;20193;-51
2022/11/19 05:59:51;;;;;;;367.57;67.90;;;;;;;;;;4983547;28;20177;-51
2022/11/19 06:02:17;;;;;;;204.73;38.57;;;;;;;;;;4975706;28;20240;-51
2022/11/19 06:04:43;;;;;;;319.63;55.80;;;;;;;;;;4982773;28;20320;-52
2022/11/19 06:07:09;;;;;;;368.47;70.07;;;;;;;;;;4985840;28;20311;-52
2022/11/19 06:09:35;;;;;;;212.37;35.50;;;;;;;;;;4983546;28;20228;-52
2022/11/19 06:12:01;;;;;;;403.27;73.17;;;;;;;;;;4972721;28;20236;-51
2022/11/19 06:14:28;;;;;;;256.00;43.13;;;;;;;;;;4983640;28;20240;-50
2022/11/19 06:16:55;;;;;;;302.20;54.37;;;;;;;;;;4988064;28;20209;-50
2022/11/19 06:19:21;;;;;;;336.50;60.57;;;;;;;;;;4987581;28;20212;-50
2022/11/19 06:21:47;;;;;;;361.70;66.47;;;;;;;;;;4991237;28;20300;-51
2022/11/19 06:24:13;;;;;;;198.87;33.60;;;;;;;;;;4988054;28;20267;-51
2022/11/19 06:26:40;;;;;;;195.07;34.27;;;;;;;;;;4990284;28;20684;-50
2022/11/19 06:29:06;;;;;;;311.23;57.03;;;;;;;;;;4991725;28;20223;-51
2022/11/19 06:31:32;;;;;;;241.73;41.73;;;;;;;;;;4985576;28;20221;-51
2022/11/19 06:33:58;;;;;;;270.80;47.83;;;;;;;;;;4999401;28;20221;-51
2022/11/19 06:36:24;;;;;;;153.90;30.83;;;;;;;;;;4988442;28;20267;-50
2022/11/19 06:38:50;;;;;;;117.43;22.77;;;;;;;;;;4985870;28;20642;-51
2022/11/19 06:41:16;;;;;;;216.37;38.37;;;;;;;;;;4995534;28;20267;-50
2022/11/19 06:43:42;;;;;;;337.07;59.63;;;;;;;;;;4985722;28;20216;-51
2022/11/19 06:46:09;;;;;;;333.53;62.13;;;;;;;;;;4972290;28;20224;-50
2022/11/19 06:48:35;;;;;;;185.57;34.40;;;;;;;;;;4972460;28;20236;-50
2022/11/19 06:51:01;;;;;;;305.53;54.03;;;;;;;;;;4959706;28;20177;-50
2022/11/19 06:53:27;;;;;;;316.97;64.57;;;;;;;;;;4963528;28;20221;-50
2022/11/19 06:56:00;;;;;;;251.53;44.23;;;;;;;;;;4986421;28;20324;-51
2022/11/19 06:58:27;;;;;;;144.13;27.63;;;;;;;;;;4989034;28;20221;-51
2022/11/19 07:00:53;;;;;;;274.33;53.27;;;;;;;;;;4977589;28;20865;-52
2022/11/19 07:03:19;;;;;;;380.17;65.90;;;;;;;;;;4979367;28;20655;-51
2022/11/19 07:05:46;;;;;;;206.57;40.03;;;;;;;;;;4982679;28;20292;-50
2022/11/19 07:08:12;;;;;;;369.87;69.07;;;;;;;;;;4979060;28;20213;-52
2022/11/19 07:10:38;;;;;;;254.33;46.50;;;;;;;;;;4982101;28;20220;-51
2022/11/19 07:13:04;;;;;;;236.00;44.53;;;;;;;;;;4987783;28;20705;-51
2022/11/19 07:15:30;;;;;;;380.57;74.47;;;;;;;;;;4981376;28;20193;-52
2022/11/19 07:17:56;;;;;;;319.33;61.23;;;;;;;;;;4975553;28;20714;-50
2022/11/19 07:20:22;;;;;;;318.10;58.00;;;;;;;;;;4956622;28;20636;-51
2022/11/19 07:22:48;;;;;;;149.23;29.73;;;;;;;;;;4968734;28;20220;-51
2022/11/19 07:25:14;;;;;;;379.37;64.03;;;;;;;;;;4972290;28;20503;-52
2022/11/19 07:27:41;;;;;;;172.00;33.43;;;;;;;;;;4988703;28;20239;-52
2022/11/19 07:30:07;;;;;;;243.37;43.93;;;;;;;;;;4977710;28;20585;-52
2022/11/19 07:32:33;;;;;;;197.23;37.23;;;;;;;;;;4987250;28;20222;-52
2022/11/19 07:34:59;;;;;;;130.27;26.43;;;;;;;;;;4988405;28;20225;-52
2022/11/19 07:37:25;;;;;;;184.07;34.00;;;;;;;;;;4991937;28;20445;-52
2022/11/19 07:39:51;;;;;;;228.07;43.13;;;;;;;;;;4994172;28;20287;-52
2022/11/19 07:45:02;;;;;;;298.03;54.43;;;;;;;;;;4985424;28;20191;-52
2022/11/19 07:47:28;;;;;;;411.97;72.80;;;;;;;;;;4984789;28;20704;-51
2022/11/19 07:49:54;;;;;;;273.90;53.23;;;;;;;;;;4969645;28;20251;-51
2022/11/19 07:52:20;;;;;;;356.50;64.93;;;;;;;;;;4978171;28;20833;-51
2022/11/19 07:54:46;;;;;;;152.97;28.50;;;;;;;;;;4978497;28;20440;-52
2022/11/19 07:57:13;;;;;;;258.47;49.47;;;;;;;;;;4960923;28;20675;-52
2022/11/19 07:59:39;;;;;;;233.80;45.73;;;;;;;;;;4964958;28;20212;-51
2022/11/19 08:02:05;;;;;;;387.27;71.63;;;;;;;;;;4971357;28;20724;-51
2022/11/19 08:04:31;;;;;;;368.90;64.00;;;;;;;;;;4977829;28;20282;-52
2022/11/19 08:06:57;;;;;;;192.03;33.70;;;;;;;;;;4976101;28;20220;-53
2022/11/19 08:09:23;;;;;;;391.80;70.07;;;;;;;;;;4969381;28;20353;-50
2022/11/19 08:11:49;;;;;;;353.47;65.13;;;;;;;;;;4993195;28;20471;-53
2022/11/19 08:14:15;;;;;;;422.47;77.23;;;;;;;;;;4986241;28;20833;-51
2022/11/19 08:19:26;;;;;;;340.73;62.50;;;;;;;;;;4986697;28;22872;-50
2022/11/19 08:21:52;;;;;;;222.40;40.77;;;;;;;;;;4974170;28;20576;-53
2022/11/19 08:24:18;;;;;;;360.80;63.47;;;;;;;;;;4986865;28;20617;-52
2022/11/19 08:26:45;;;;;;;342.30;59.30;;;;;;;;;;4981495;28;20188;-51
2022/11/19 08:29:12;;;;;;;274.53;49.80;;;;;;;;;;4988007;28;20231;-53
2022/11/19 08:31:38;;;;;;;170.60;33.80;;;;;;;;;;4987452;28;20216;-51
2022/11/19 08:34:04;;;;;;;207.70;40.20;;;;;;;;;;4981816;28;20255;-51
2022/11/19 08:36:30;;;;;;;450.47;85.83;;;;;;;;;;4983307;28;20469;-50
2022/11/19 08:38:57;;;;;;;330.57;61.53;;;;;;;;;;4981606;28;20259;-52
2022/11/19 08:44:08;;;;;;;158.57;30.30;;;;;;;;;;4987292;28;20550;-52
2022/11/19 08:46:34;;;;;;;326.63;55.27;;;;;;;;;;4986496;28;20672;-52
2022/11/19 08:49:00;;;;;;;319.37;55.67;;;;;;;;;;4986302;28;20236;-52
2022/11/19 08:51:26;;;;;;;432.07;88.47;;;;;;;;;;4995430;28;20254;-51
2022/11/19 08:53:52;;;;;;;279.90;54.00;;;;;;;;;;4986757;28;20212;-51
2022/11/19 08:56:18;;;;;;;366.67;72.17;;;;;;;;;;4982964;28;20217;-51
2022/11/19 08:58:44;;;;;;;472.53;90.63;;;;;;;;;;4980457;28;20210;-50
2022/11/19 09:01:14;;;;;;;129.97;26.10;;;;;;;;;;4993511;28;20290;-51
2022/11/19 09:03:40;;;;;;;389.90;74.30;;;;;;;;;;4986322;28;20224;-50
2022/11/19 09:06:07;;;;;;;285.17;54.73;;;;;;;;;;4990345;28;20250;-52
2022/11/19 09:08:33;;;;;;;205.10;39.37;;;;;;;;;;4998947;28;20230;-51
2022/11/19 09:10:59;;;;;;;270.50;47.47;;;;;;;;;;4991914;28;20309;-50
2022/11/19 09:13:25;;;;;;;358.67;67.03;;;;;;;;;;4972365;28;20256;-52
2022/11/19 09:15:51;;;;;;;336.60;60.80;;;;;;;;;;4976044;28;22634;-51
2022/11/19 09:18:17;;;;;;;215.60;39.30;;;;;;;;;;4994020;28;20521;-50
2022/11/19 09:20:44;;;;;;;315.77;53.33;;;;;;;;;;5009164;28;20231;-50
2022/11/19 09:23:10;;;;;;;103.93;21.10;;;;;;;;;;5009076;28;20756;-50
2022/11/19 09:25:35;;;;;;;167.33;30.40;;;;;;;;;;5024665;28;20351;-50
2022/11/19 09:28:01;;;;;;;227.63;43.90;;;;;;;;;;4983117;28;20220;-52
2022/11/19 09:30:27;;;;;;;267.17;50.10;;;;;;;;;;4980312;28;20255;-52
2022/11/19 09:32:53;;;;;;;407.23;77.47;;;;;;;;;;4956840;28;20583;-52
2022/11/19 09:35:19;;;;;;;368.77;68.93;;;;;;;;;;4966893;28;20220;-51
2022/11/19 09:37:45;;;;;;;352.97;64.77;;;;;;;;;;4980440;28;20296;-51
2022/11/19 09:40:16;;;;;;;104.87;21.90;;;;;;;;;;4988241;28;20925;-52
2022/11/19 09:43:01;;;;;;;357.00;69.67;;;;;;;;;;4978353;28;20223;-51
2022/11/19 09:45:27;;;;;;;268.97;50.63;;;;;;;;;;4974779;28;20339;-51
2022/11/19 09:48:07;;;;;;;300.50;62.70;;;;;;;;;;4979984;28;20177;-52
2022/11/19 09:50:44;;;;;;;218.80;43.47;;;;;;;;;;4987895;28;20311;-51
2022/11/19 09:53:16;;;;;;;93.80;22.33;;;;;;;;;;5001491;28;20224;-51
2022/11/19 09:55:44;;;;;;;117.73;25.93;;;;;;;;;;5005844;28;20319;-51
2022/11/19 09:58:30;;;;;;;62.23;14.40;;;;;;;;;;5007112;28;20504;-51
2022/11/19 10:00:58;;;;;;;64.37;15.87;;;;;;;;;;4999394;28;20361;-51
2022/11/19 10:03:25;;;;;;;88.27;20.97;;;;;;;;;;5004024;28;20635;-52
2022/11/19 10:06:04;;;;;;;182.57;41.67;;;;;;;;;;4999227;28;20276;-50
2022/11/19 10:08:49;;;;;;;101.27;23.27;;;;;;;;;;5005256;28;20715;-51
2022/11/19 10:11:31;;;;;;;111.53;25.57;;;;;;;;;;4999840;28;20525;-51
2022/11/19 10:14:01;;;;;;;149.43;34.20;;;;;;;;;;5001284;28;21040;-51
2022/11/19 10:16:27;;;;;;;96.33;21.57;;;;;;;;;;5002368;28;20764;-51
2022/11/19 10:18:59;;;;;;;67.40;15.73;;;;;;;;;;5002966;28;20362;-51
2022/11/19 10:21:25;;;;;;;94.10;22.00;;;;;;;;;;4994201;28;20712;-51
2022/11/19 10:24:01;;;;;;;68.03;16.43;;;;;;;;;;5004717;28;20232;-52
2022/11/19 10:26:33;;;;;;;145.97;32.10;;;;;;;;;;4997892;28;20212;-51
2022/11/19 10:28:59;;;;;;;129.23;28.93;;;;;;;;;;4996328;28;20693;-51
2022/11/19 10:31:25;;;;;;;91.33;20.63;;;;;;;;;;4999442;28;20620;-51
2022/11/19 10:33:55;;;;;;;111.73;24.90;;;;;;;;;;4992834;28;21318;-51
2022/11/19 10:36:30;;;;;;;99.10;22.20;;;;;;;;;;5002531;28;20224;-51
2022/11/19 10:39:03;;;;;;;75.63;17.13;;;;;;;;;;5006558;28;20315;-51
2022/11/19 10:41:48;;;;;;;91.97;20.13;;;;;;;;;;5002414;28;20597;-51
2022/11/19 10:44:36;;;;;;;86.87;19.33;;;;;;;;;;5005304;28;20212;-50
2022/11/19 10:47:06;;;;;;;122.97;26.30;;;;;;;;;;5003342;28;20665;-52
2022/11/19 10:49:37;;;;;;;96.70;20.90;;;;;;;;;;5005177;28;20267;-51
2022/11/19 10:52:03;;;;;;;92.17;19.40;;;;;;;;;;5005707;28;20216;-51
2022/11/19 10:54:29;;;;;;;82.90;18.20;;;;;;;;;;5005304;28;20184;-51
2022/11/19 10:56:56;;;;;;;61.37;12.97;;;;;;;;;;5004306;28;20180;-52
2022/11/19 10:59:24;;;;;;;114.77;24.20;;;;;;;;;;5006018;28;20612;-51
2022/11/19 11:01:58;;;;;;;91.50;19.83;;;;;;;;;;4986744;28;20580;-51
2022/11/19 11:04:25;;;;;;;95.47;20.10;;;;;;;;;;5001360;28;20212;-52
2022/11/19 11:06:59;;;;;;;91.83;19.53;;;;;;;;;;5005475;28;20205;-51
2022/11/19 11:09:34;;;;;;;139.50;29.80;;;;;;;;;;4998294;28;20206;-51
2022/11/19 11:14:53;;;;;;;104.33;21.73;;;;;;;;;;4998022;28;20247;-51
2022/11/19 11:17:22;;;;;;;158.50;34.30;;;;;;;;;;4971991;28;21076;-51
2022/11/19 11:19:57;;;;;;;308.87;56.23;;;;;;;;;;4985119;28;20261;-52
2022/11/19 11:22:23;;;;;;;256.80;55.77;;;;;;;;;;4970782;28;20239;-51
2022/11/19 11:24:49;;;;;;;317.43;67.00;;;;;;;;;;4981255;28;20221;-52
2022/11/19 11:27:18;;;;;;;365.43;76.03;;;;;;;;;;4978449;28;20817;-51
2022/11/19 11:29:44;;;;;;;337.20;71.00;;;;;;;;;;4981113;28;20204;-52
2022/11/19 11:32:30;;;;;;;282.43;57.67;;;;;;;;;;4976105;28;20248;-51
2022/11/19 11:34:56;;;;;;;404.87;79.40;;;;;;;;;;4980386;28;20212;-51
2022/11/19 11:37:22;;;;;;;189.60;39.27;;;;;;;;;;4989641;28;20715;-52
2022/11/19 11:39:49;;;;;;;394.23;74.87;;;;;;;;;;4981848;28;20217;-52
2022/11/19 11:42:19;;;;;;;94.27;21.07;;;;;;;;;;4985102;28;20247;-52
2022/11/19 11:44:53;;;;;;;325.77;66.20;;;;;;;;;;4986590;28;20229;-52
2022/11/19 11:47:21;;;;;;;301.43;61.50;;;;;;;;;;4979056;28;20216;-52
2022/11/19 11:50:06;;;;;;;345.33;71.87;;;;;;;;;;4975176;28;20309;-52
2022/11/19 11:52:58;;;;;;;202.80;39.30;;;;;;;;;;4986704;28;20254;-52
2022/11/19 11:55:24;;;;;;;338.83;67.60;;;;;;;;;;4985836;28;20240;-52
2022/11/19 11:57:56;;;;;;;296.47;63.07;;;;;;;;;;4991588;28;20708;-51
2022/11/19 12:00:33;;;;;;;357.97;78.97;;;;;;;;;;4985079;28;20177;-51
2022/11/19 12:03:06;;;;;;;293.33;63.80;;;;;;;;;;4981702;28;20199;-51
2022/11/19 12:05:47;;;;;;;220.50;50.50;;;;;;;;;;4980351;28;20217;-52
2022/11/19 12:08:22;;;;;;;320.93;68.20;;;;;;;;;;4967343;28;20836;-51
2022/11/19 12:11:00;;;;;;;457.77;93.70;;;;;;;;;;4979797;28;20807;-52
2022/11/19 12:13:44;;;;;;;366.17;80.30;;;;;;;;;;4988976;28;20263;-52
2022/11/19 12:16:15;;;;;;;101.97;22.07;;;;;;;;;;4983628;28;20246;-51
2022/11/19 12:18:57;;;;;;;328.17;70.53;;;;;;;;;;5003158;28;20713;-52
2022/11/19 12:21:32;;;;;;;290.03;62.33;;;;;;;;;;5000777;28;20192;-52
2022/11/19 12:24:06;;;;;;;196.40;38.90;;;;;;;;;;4988806;28;20212;-52
2022/11/19 12:26:50;;;;;;;78.70;18.90;;;;;;;;;;5004446;28;20213;-51
2022/11/19 12:29:35;;;;;;;329.20;61.53;;;;;;;;;;5003805;28;20466;-52
2022/11/19 12:32:01;;;;;;;309.10;64.97;;;;;;;;;;4998255;28;20347;-51
2022/11/19 12:34:42;;;;;;;326.93;67.93;;;;;;;;;;4972120;28;20224;-52
2022/11/19 12:37:24;;;;;;;291.10;61.47;;;;;;;;;;4981631;28;20439;-51
2022/11/19 12:39:54;;;;;;;294.40;57.00;;;;;;;;;;4974650;28;20521;-51
2022/11/19 12:42:32;;;;;;;250.07;50.77;;;;;;;;;;4989730;28;20679;-51
2022/11/19 12:45:01;;;;;;;167.67;39.10;;;;;;;;;;4992792;28;20311;-51
2022/11/19 12:47:35;;;;;;;198.77;40.80;;;;;;;;;;4986909;28;20224;-51
2022/11/19 12:50:13;;;;;;;241.53;54.30;;;;;;;;;;4988250;28;20217;-52
2022/11/19 12:52:57;;;;;;;450.83;112.13;;;;;;;;;;4967170;28;20347;-53
2022/11/19 12:55:33;;;;;;;267.63;59.17;;;;;;;;;;4983145;28;20213;-51
2022/11/19 12:58:20;;;;;;;192.20;42.53;;;;;;;;;;4994948;28;20770;-51
2022/11/19 13:00:51;;;;;;;258.83;57.47;;;;;;;;;;4989461;28;22491;-51
2022/11/19 13:03:22;;;;;;;197.47;47.23;;;;;;;;;;4980921;28;20241;-52
2022/11/19 13:05:48;;;;;;;437.17;92.07;;;;;;;;;;4972407;28;20224;-50
2022/11/19 13:08:21;;;;;;;466.00;104.27;;;;;;;;;;4977392;28;20833;-51
2022/11/19 13:10:48;;;;;;;269.80;58.13;;;;;;;;;;4981911;28;20335;-52
2022/11/19 13:13:16;;;;;;;267.73;61.80;;;;;;;;;;4995029;28;20216;-52
2022/11/19 13:15:45;;;;;;;283.27;60.57;;;;;;;;;;4996212;28;20232;-51
2022/11/19 13:18:14;;;;;;;272.60;60.37;;;;;;;;;;4989975;28;20185;-52
2022/11/19 13:20:51;;;;;;;253.33;54.73;;;;;;;;;;4991424;28;20217;-52
2022/11/19 13:23:40;;;;;;;290.33;63.27;;;;;;;;;;4974744;28;20232;-51
2022/11/19 13:26:12;;;;;;;336.40;68.97;;;;;;;;;;4977087;28;20311;-51
2022/11/19 13:28:48;;;;;;;335.93;74.07;;;;;;;;;;4977103;28;21211;-51
2022/11/19 13:31:32;;;;;;;344.77;78.53;;;;;;;;;;4968880;28;20608;-51
2022/11/19 13:34:15;;;;;;;364.23;82.30;;;;;;;;;;4977538;28;20247;-51
2022/11/19 13:36:44;;;;;;;342.07;76.07;;;;;;;;;;4976530;28;20294;-52
2022/11/19 13:39:14;;;;;;;342.73;71.63;;;;;;;;;;4980686;28;20617;-52
2022/11/19 13:44:37;;;;;;;117.63;28.00;;;;;;;;;;4983938;28;20755;-52
2022/11/19 13:44:42;;;;;;;261.13;55.13;;;;;;;;;;4967802;28;20260;-52
2022/11/19 13:47:10;;;;;;;339.33;75.57;;;;;;;;;;4983299;28;20244;-52
2022/11/19 13:49:39;;;;;;;362.03;75.70;;;;;;;;;;4987264;28;20494;-52
2022/11/19 13:52:12;;;;;;;182.53;41.83;;;;;;;;;;4989296;28;20294;-52
2022/11/19 13:54:40;;;;;;;256.00;54.83;;;;;;;;;;4981740;28;20216;-51
2022/11/19 13:57:08;;;;;;;299.47;67.77;;;;;;;;;;4974132;28;21491;-51
2022/11/19 13:59:36;;;;;;;246.60;57.20;;;;;;;;;;4974633;28;20244;-51
2022/11/19 14:02:05;;;;;;;425.80;95.87;;;;;;;;;;4976019;28;20221;-51
2022/11/19 14:04:31;;;;;;;260.60;53.63;;;;;;;;;;4971616;28;20339;-51
2022/11/19 14:07:16;;;;;;;323.60;68.57;;;;;;;;;;4972735;28;20346;-52
2022/11/19 14:10:01;;;;;;;370.33;76.63;;;;;;;;;;4974257;28;20676;-51
2022/11/19 14:12:40;;;;;;;397.83;87.93;;;;;;;;;;4971144;28;20213;-51
2022/11/19 14:27:18;;;;;;;426.17;95.77;;;;;;;;;;4968027;28;20250;-51
2022/11/19 14:29:44;;;;;;;187.03;39.70;;;;;;;;;;4972305;28;20467;-52
2022/11/19 14:32:10;;;;;;;356.50;78.07;;;;;;;;;;4960157;28;21873;-52
2022/11/19 14:34:39;;;;;;;300.30;64.73;;;;;;;;;;4973147;28;20646;-51
2022/11/19 14:37:25;;;;;;;350.67;81.67;;;;;;;;;;4971580;28;20216;-52
2022/11/19 14:40:00;;;;;;;291.20;58.43;;;;;;;;;;4971944;28;20252;-51
2022/11/19 14:42:26;;;;;;;471.93;95.03;;;;;;;;;;4972069;28;20657;-52
2022/11/19 14:45:04;;;;;;;216.07;48.00;;;;;;;;;;4969409;28;20193;-51
2022/11/19 14:47:32;;;;;;;504.50;106.67;;;;;;;;;;4956590;28;20300;-51
2022/11/19 14:49:59;;;;;;;202.07;44.57;;;;;;;;;;4963538;28;20216;-52
2022/11/19 14:52:32;;;;;;;172.27;38.37;;;;;;;;;;4972050;28;20518;-51